createdAt,value
2023-04-18T00:01:58.104Z,87.34
2023-04-18T00:04:28.965Z,87.38
2023-04-18T00:07:01.638Z,87.20
2023-04-18T00:09:33.085Z,87.10
2023-04-18T00:12:04.959Z,87.09
2023-04-18T00:14:38.074Z,87.07
2023-04-18T00:17:09.478Z,87.09
2023-04-18T00:19:41.837Z,87.13
2023-04-18T00:22:15.101Z,87.06
2023-04-18T00:24:45.559Z,87.12
2023-04-18T00:27:16.594Z,87.21
2023-04-18T00:29:47.529Z,87.29
2023-04-18T00:32:21.293Z,87.32
2023-04-18T00:34:51.780Z,87.51
2023-04-18T00:37:22.252Z,87.36
2023-04-18T00:39:53.937Z,87.54
2023-04-18T00:42:26.289Z,87.54
2023-04-18T00:44:56.970Z,87.54
2023-04-18T00:47:29.528Z,87.71
2023-04-18T00:50:02.509Z,87.77
2023-04-18T00:52:35.282Z,87.86
2023-04-18T00:55:09.322Z,87.83
2023-04-18T00:57:41.536Z,87.91
2023-04-18T01:00:13.162Z,87.81
2023-04-18T01:02:44.089Z,87.62
2023-04-18T01:05:15.139Z,87.70
2023-04-18T01:07:46.187Z,87.50
2023-04-18T01:10:17.014Z,87.41
2023-04-18T01:12:47.674Z,87.13
2023-04-18T01:15:18.196Z,87.22
2023-04-18T01:17:48.818Z,86.97
2023-04-18T01:20:25.237Z,86.80
2023-04-18T01:22:57.133Z,86.84
2023-04-18T01:25:27.737Z,86.63
2023-04-18T01:27:58.940Z,86.67
2023-04-18T01:30:30.808Z,86.76
2023-04-18T01:33:06.599Z,86.95
2023-04-18T01:35:37.257Z,86.76
2023-04-18T01:38:07.708Z,86.76
2023-04-18T01:40:39.230Z,86.95
2023-04-18T01:43:09.730Z,86.73
2023-04-18T01:45:43.056Z,86.85
2023-04-18T01:48:13.702Z,86.87
2023-04-18T01:50:44.603Z,86.75
2023-04-18T01:53:17.211Z,86.60
2023-04-18T01:55:51.990Z,86.56
2023-04-18T01:58:23.818Z,86.35
2023-04-18T02:00:57.764Z,86.41
2023-04-18T02:03:28.620Z,86.47
2023-04-18T02:05:59.523Z,86.43
2023-04-18T02:08:32.987Z,86.44
2023-04-18T02:11:04.166Z,86.29
2023-04-18T02:13:34.716Z,86.32
2023-04-18T02:16:06.896Z,86.06
2023-04-18T02:18:38.991Z,85.99
2023-04-18T02:21:11.190Z,85.65
2023-04-18T02:23:42.714Z,85.69
2023-04-18T02:26:13.352Z,85.85
2023-04-18T02:28:44.094Z,85.79
2023-04-18T02:31:15.930Z,85.72
2023-04-18T02:33:48.216Z,85.84
2023-04-18T02:36:18.862Z,85.91
2023-04-18T02:38:49.542Z,86.21
2023-04-18T02:41:21.857Z,86.03
2023-04-18T02:43:52.316Z,86.11
2023-04-18T02:46:24.676Z,86.25
2023-04-18T02:49:02.160Z,86.37
2023-04-18T02:51:33.049Z,86.22
2023-04-18T02:54:03.630Z,86.11
2023-04-18T02:56:37.308Z,85.89
2023-04-18T02:59:09.981Z,85.87
2023-04-18T03:01:42.134Z,85.85
2023-04-18T03:04:14.404Z,85.81
2023-04-18T03:06:48.352Z,86.01
2023-04-18T03:09:18.873Z,85.86
2023-04-18T03:11:49.629Z,86.01
2023-04-18T03:14:20.152Z,85.75
2023-04-18T03:16:54.592Z,85.66
2023-04-18T03:19:23.451Z,85.57
2023-04-18T03:21:55.611Z,85.24
2023-04-18T03:24:27.900Z,85.31
2023-04-18T03:27:00.189Z,85.26
2023-04-18T03:29:31.188Z,85.19
2023-04-18T03:32:02.499Z,85.20
2023-04-18T03:34:33.019Z,85.06
2023-04-18T03:37:05.112Z,85.06
2023-04-18T03:39:35.666Z,84.84
2023-04-18T03:42:06.552Z,84.98
2023-04-18T03:44:38.552Z,85.16
2023-04-18T03:47:09.382Z,85.02
2023-04-18T03:49:41.485Z,84.81
2023-04-18T03:52:11.980Z,84.94
2023-04-18T03:54:43.027Z,84.91
2023-04-18T03:57:14.699Z,85.26
2023-04-18T03:59:47.829Z,84.97
2023-04-18T04:02:18.256Z,85.20
2023-04-18T04:04:49.487Z,85.20
2023-04-18T04:07:20.041Z,85.35
2023-04-18T04:09:50.660Z,85.20
2023-04-18T04:12:21.232Z,85.25
2023-04-18T04:14:51.905Z,85.03
2023-04-18T04:17:22.506Z,85.14
2023-04-18T04:19:53.508Z,85.41
2023-04-18T04:22:24.066Z,85.22
2023-04-18T04:24:57.793Z,85.06
2023-04-18T04:27:29.992Z,85.19
2023-04-18T04:30:02.834Z,85.12
2023-04-18T04:32:33.717Z,85.12
2023-04-18T04:35:04.444Z,84.76
2023-04-18T04:37:35.079Z,84.80
2023-04-18T04:40:06.542Z,84.75
2023-04-18T04:42:40.482Z,84.29
2023-04-18T04:45:12.433Z,84.05
2023-04-18T04:47:43.000Z,84.06
2023-04-18T04:50:18.442Z,84.13
2023-04-18T04:52:50.414Z,84.31
2023-04-18T04:55:21.264Z,84.30
2023-04-18T04:57:51.917Z,84.79
2023-04-18T05:00:22.816Z,84.96
2023-04-18T05:02:54.934Z,85.01
2023-04-18T05:05:26.611Z,85.11
2023-04-18T05:07:57.243Z,85.23
2023-04-18T05:10:28.504Z,84.86
2023-04-18T05:12:59.001Z,81.26
2023-04-18T05:15:29.527Z,76.36
2023-04-18T05:18:00.172Z,74.12
2023-04-18T05:20:32.330Z,74.34
2023-04-18T05:23:04.096Z,71.34
2023-04-18T05:25:34.681Z,69.79
2023-04-18T05:28:05.285Z,68.12
2023-04-18T05:30:36.052Z,70.80
2023-04-18T05:33:08.086Z,71.36
2023-04-18T05:35:39.384Z,69.11
2023-04-18T05:38:10.451Z,68.27
2023-04-18T05:40:43.420Z,66.96
2023-04-18T05:43:16.966Z,66.92
2023-04-18T05:45:47.785Z,64.35
2023-04-18T05:48:21.658Z,62.63
2023-04-18T05:50:54.045Z,60.26
2023-04-18T05:53:26.457Z,59.80
2023-04-18T05:55:58.924Z,58.03
2023-04-18T05:58:29.619Z,56.40
2023-04-18T06:01:01.161Z,53.97
2023-04-18T06:03:32.349Z,54.92
2023-04-18T06:06:04.777Z,60.13
2023-04-18T06:08:38.563Z,64.48
2023-04-18T06:11:10.412Z,66.62
2023-04-18T06:13:43.199Z,69.46
2023-04-18T06:16:15.258Z,70.35
2023-04-18T06:18:46.330Z,69.88
2023-04-18T06:21:18.020Z,72.09
2023-04-18T06:23:50.357Z,72.55
2023-04-18T06:26:22.232Z,73.64
2023-04-18T06:28:56.148Z,74.95
2023-04-18T06:31:27.285Z,75.33
2023-04-18T06:33:57.771Z,76.14
2023-04-18T06:36:32.452Z,76.03
2023-04-18T06:39:04.312Z,75.81
2023-04-18T06:41:45.242Z,75.25
2023-04-18T06:44:15.598Z,74.67
2023-04-18T06:46:47.819Z,75.82
2023-04-18T06:49:18.372Z,75.43
2023-04-18T06:51:50.819Z,75.57
2023-04-18T06:54:21.386Z,74.57
2023-04-18T06:56:53.484Z,74.72
2023-04-18T06:59:25.778Z,75.21
2023-04-18T07:01:56.386Z,74.76
2023-04-18T07:04:27.005Z,74.63
2023-04-18T07:06:57.513Z,74.36
2023-04-18T07:09:28.558Z,73.68
2023-04-18T07:12:01.126Z,72.95
2023-04-18T07:14:33.563Z,72.53
2023-04-18T07:17:05.114Z,71.16
2023-04-18T07:19:36.517Z,72.22
2023-04-18T07:22:07.012Z,71.64
2023-04-18T07:24:39.359Z,72.96
2023-04-18T07:27:09.926Z,74.56
2023-04-18T07:29:41.055Z,74.99
2023-04-18T07:32:11.636Z,75.12
2023-04-18T07:34:42.723Z,74.93
2023-04-18T07:37:15.150Z,74.66
2023-04-18T07:39:48.799Z,74.26
2023-04-18T07:42:19.499Z,73.85
2023-04-18T07:44:50.399Z,73.68
2023-04-18T07:47:22.386Z,74.14
2023-04-18T07:49:53.195Z,74.58
2023-04-18T07:52:23.937Z,73.65
2023-04-18T07:54:55.825Z,73.44
2023-04-18T07:57:26.418Z,73.13
2023-04-18T07:59:56.963Z,72.89
2023-04-18T08:02:27.576Z,73.28
2023-04-18T08:05:00.905Z,73.20
2023-04-18T08:07:30.465Z,72.57
2023-04-18T08:10:01.701Z,72.15
2023-04-18T08:12:32.256Z,71.94
2023-04-18T08:15:06.596Z,70.96
2023-04-18T08:17:38.869Z,70.45
2023-04-18T08:20:15.259Z,71.06
2023-04-18T08:23:02.341Z,71.85
2023-04-18T08:25:22.432Z,72.03
2023-04-18T08:27:54.171Z,71.75
2023-04-18T08:30:27.339Z,71.47
2023-04-18T08:32:58.105Z,71.15
2023-04-18T08:35:30.026Z,71.99
2023-04-18T08:38:01.590Z,72.44
2023-04-18T08:40:33.300Z,72.78
2023-04-18T08:43:07.201Z,72.75
2023-04-18T08:45:42.154Z,72.90
2023-04-18T08:48:14.157Z,72.81
2023-04-18T08:50:48.323Z,72.90
2023-04-18T08:53:19.286Z,72.63
2023-04-18T08:55:57.856Z,71.94
2023-04-18T08:58:30.736Z,71.84
2023-04-18T09:01:03.309Z,71.88
2023-04-18T09:03:41.637Z,72.05
2023-04-18T09:06:16.422Z,72.10
2023-04-18T09:09:00.523Z,71.82
2023-04-18T09:11:32.397Z,72.36
2023-04-18T09:14:03.481Z,71.30
2023-04-18T09:16:47.918Z,70.20
2023-04-18T09:19:19.082Z,70.10
2023-04-18T09:21:53.816Z,68.73
2023-04-18T09:24:27.698Z,68.31
2023-04-18T09:27:00.231Z,68.78
2023-04-18T09:29:47.701Z,67.97
2023-04-18T09:32:27.227Z,68.92
2023-04-18T09:35:04.063Z,66.90
2023-04-18T09:37:34.169Z,66.79
2023-04-18T09:40:09.179Z,65.99
2023-04-18T09:42:39.829Z,66.16
2023-04-18T09:45:12.217Z,64.37
2023-04-18T09:47:42.772Z,63.80
2023-04-18T09:50:16.871Z,63.87
2023-04-18T09:52:50.812Z,63.74
2023-04-18T09:55:20.983Z,64.80
2023-04-18T09:57:54.069Z,64.58
2023-04-18T10:00:26.592Z,64.77
2023-04-18T10:03:03.315Z,65.89
2023-04-18T10:05:36.435Z,65.78
2023-04-18T10:08:09.261Z,64.81
2023-04-18T10:10:40.833Z,65.15
2023-04-18T10:13:14.727Z,64.19
2023-04-18T10:15:46.165Z,63.25
2023-04-18T10:18:17.390Z,62.90
2023-04-18T10:20:48.261Z,63.21
2023-04-18T10:23:36.691Z,63.46
2023-04-18T10:26:11.782Z,63.54
2023-04-18T10:28:57.445Z,63.31
2023-04-18T10:31:30.132Z,63.04
2023-04-18T10:36:34.700Z,64.26
2023-04-18T10:39:25.387Z,64.38
2023-04-18T10:41:56.112Z,64.03
2023-04-18T10:44:27.480Z,64.36
2023-04-18T10:47:03.967Z,64.20
2023-04-18T10:49:36.912Z,63.63
2023-04-18T10:52:07.521Z,64.23
2023-04-18T10:54:45.817Z,64.11
2023-04-18T10:57:17.557Z,64.11
2023-04-18T10:59:54.687Z,64.35
2023-04-18T11:02:29.363Z,64.34
2023-04-18T11:05:02.960Z,64.08
2023-04-18T11:07:35.293Z,63.77
2023-04-18T11:10:10.094Z,63.22
2023-04-18T11:12:42.792Z,63.14
2023-04-18T11:15:20.651Z,63.03
2023-04-18T11:18:00.757Z,62.52
2023-04-18T11:20:39.530Z,61.41
2023-04-18T11:23:23.187Z,62.21
2023-04-18T11:25:56.655Z,62.52
2023-04-18T11:28:28.544Z,64.00
2023-04-18T11:31:00.257Z,62.35
2023-04-18T11:33:32.866Z,62.83
2023-04-18T11:36:05.782Z,61.77
2023-04-18T11:38:38.038Z,61.62
2023-04-18T11:41:14.657Z,61.89
2023-04-18T11:43:46.664Z,61.94
2023-04-18T11:46:17.288Z,61.15
2023-04-18T11:48:49.540Z,60.61
2023-04-18T11:51:38.706Z,61.10
2023-04-18T11:54:29.102Z,61.85
2023-04-18T11:56:59.897Z,62.27
2023-04-18T11:59:32.021Z,61.98
2023-04-18T12:02:15.433Z,62.75
2023-04-18T12:04:53.556Z,62.67
2023-04-18T12:07:37.751Z,63.64
2023-04-18T12:10:11.648Z,62.69
2023-04-18T12:12:46.795Z,63.49
2023-04-18T12:15:18.577Z,64.62
2023-04-18T12:17:52.415Z,64.54
2023-04-18T12:20:25.131Z,63.96
2023-04-18T12:22:57.449Z,64.16
2023-04-18T12:25:28.038Z,63.76
2023-04-18T12:28:04.624Z,63.60
2023-04-18T12:30:37.736Z,63.82
2023-04-18T12:33:11.715Z,64.30
2023-04-18T12:35:44.417Z,64.41
2023-04-18T12:38:18.364Z,63.59
2023-04-18T12:40:50.531Z,64.56
2023-04-18T12:43:23.052Z,63.90
2023-04-18T12:45:56.606Z,64.65
2023-04-18T12:48:28.433Z,64.03
2023-04-18T12:50:59.960Z,64.14
2023-04-18T12:53:30.595Z,63.73
2023-04-18T12:56:02.445Z,63.82
2023-04-18T12:58:37.135Z,64.35
2023-04-18T13:01:10.722Z,64.00
2023-04-18T13:03:42.773Z,63.49
2023-04-18T13:06:14.968Z,64.07
2023-04-18T13:08:47.430Z,63.81
2023-04-18T13:11:18.010Z,63.42
2023-04-18T13:13:49.538Z,64.03
2023-04-18T13:16:22.435Z,63.88
2023-04-18T13:18:54.457Z,63.83
2023-04-18T13:21:27.764Z,63.11
2023-04-18T13:23:58.328Z,64.41
2023-04-18T13:26:30.399Z,64.07
2023-04-18T13:29:02.619Z,64.29
2023-04-18T13:31:34.714Z,65.97
2023-04-18T13:34:05.429Z,65.16
2023-04-18T13:36:37.433Z,65.43
2023-04-18T13:39:10.730Z,64.76
2023-04-18T13:41:41.267Z,64.64
2023-04-18T13:44:11.737Z,64.35
2023-04-18T13:46:42.963Z,64.88
2023-04-18T13:49:15.717Z,65.07
2023-04-18T13:51:46.525Z,64.41
2023-04-18T13:54:17.952Z,63.66
2023-04-18T13:56:48.433Z,63.33
2023-04-18T13:59:19.061Z,63.08
2023-04-18T14:01:49.731Z,62.43
2023-04-18T14:04:25.146Z,62.67
2023-04-18T14:06:58.400Z,61.90
2023-04-18T14:09:30.408Z,61.49
2023-04-18T14:12:05.948Z,61.61
2023-04-18T14:14:37.165Z,61.67
2023-04-18T14:17:07.794Z,61.54
2023-04-18T14:19:38.400Z,61.83
2023-04-18T14:22:08.894Z,60.92
2023-04-18T14:24:41.426Z,60.73
2023-04-18T14:27:12.460Z,60.81
2023-04-18T14:29:43.067Z,60.74
2023-04-18T14:32:14.844Z,60.97
2023-04-18T14:34:47.044Z,60.70
2023-04-18T14:37:17.821Z,60.19
2023-04-18T14:39:48.810Z,60.12
2023-04-18T14:42:19.434Z,60.95
2023-04-18T14:44:51.068Z,61.85
2023-04-18T14:47:23.998Z,61.91
2023-04-18T14:49:54.880Z,62.66
2023-04-18T14:52:26.527Z,63.84
2023-04-18T14:54:57.481Z,63.51
2023-04-18T14:57:31.228Z,63.37
2023-04-18T15:00:04.938Z,64.13
2023-04-18T15:02:35.709Z,63.77
2023-04-18T15:05:07.449Z,64.36
2023-04-18T15:07:38.060Z,64.27
2023-04-18T15:10:12.162Z,64.12
2023-04-18T15:12:42.964Z,64.22
2023-04-18T15:15:14.457Z,63.81
2023-04-18T15:17:44.946Z,63.76
2023-04-18T15:20:17.704Z,64.10
2023-04-18T15:22:48.208Z,63.42
2023-04-18T15:25:18.900Z,63.70
2023-04-18T15:27:52.337Z,63.75
2023-04-18T15:30:24.050Z,63.66
2023-04-18T15:32:54.733Z,63.91
2023-04-18T15:35:29.802Z,64.19
2023-04-18T15:38:00.625Z,64.21
2023-04-18T15:40:33.190Z,64.21
2023-04-18T15:43:06.051Z,63.63
2023-04-18T15:45:38.588Z,63.50
2023-04-18T15:48:09.205Z,63.72
2023-04-18T15:50:42.324Z,63.56
2023-04-18T15:53:12.765Z,63.18
2023-04-18T15:55:43.330Z,62.86
2023-04-18T15:58:14.110Z,62.75
2023-04-18T16:00:46.863Z,62.72
2023-04-18T16:03:18.230Z,62.40
2023-04-18T16:05:49.016Z,62.29
2023-04-18T16:08:19.521Z,62.44
2023-04-18T16:10:51.575Z,62.11
2023-04-18T16:13:22.112Z,62.53
2023-04-18T16:15:52.696Z,62.44
2023-04-18T16:18:23.247Z,62.33
2023-04-18T16:20:53.822Z,61.61
2023-04-18T16:23:26.471Z,61.44
2023-04-18T16:25:57.346Z,61.44
2023-04-18T16:28:29.519Z,61.45
2023-04-18T16:31:00.294Z,61.44
2023-04-18T16:33:31.069Z,61.57
2023-04-18T16:36:05.280Z,61.46
2023-04-18T16:38:35.830Z,61.29
2023-04-18T16:41:06.645Z,61.57
2023-04-18T16:43:38.876Z,61.26
2023-04-18T16:46:11.265Z,61.21
2023-04-18T16:48:42.017Z,60.96
2023-04-18T16:51:13.736Z,60.97
2023-04-18T16:53:45.742Z,61.04
2023-04-18T16:56:37.101Z,60.62
2023-04-18T16:59:10.739Z,60.01
2023-04-18T17:01:42.448Z,60.54
2023-04-18T17:04:14.754Z,60.59
2023-04-18T17:09:46.427Z,60.30
2023-04-18T17:12:18.164Z,60.31
2023-04-18T17:14:48.763Z,60.79
2023-04-18T17:17:21.158Z,60.75
2023-04-18T17:19:51.656Z,61.13
2023-04-18T17:22:23.449Z,61.67
2023-04-18T17:24:53.895Z,61.91
2023-04-18T17:27:24.530Z,62.08
2023-04-18T17:29:58.313Z,62.42
2023-04-18T17:32:32.009Z,63.00
2023-04-18T17:35:04.415Z,63.44
2023-04-18T17:37:38.663Z,64.02
2023-04-18T17:40:12.380Z,64.44
2023-04-18T17:42:44.477Z,64.80
2023-04-18T17:45:17.272Z,65.30
2023-04-18T17:47:49.474Z,65.45
2023-04-18T17:50:20.241Z,66.22
2023-04-18T17:52:52.404Z,66.63
2023-04-18T17:55:22.814Z,66.90
2023-04-18T17:57:53.364Z,67.38
2023-04-18T18:00:26.876Z,67.34
2023-04-18T18:02:57.710Z,67.65
2023-04-18T18:05:28.296Z,68.06
2023-04-18T18:08:00.998Z,67.95
2023-04-18T18:10:33.344Z,67.05
2023-04-18T18:13:03.939Z,66.19
2023-04-18T18:15:35.399Z,65.82
2023-04-18T18:18:13.729Z,65.90
2023-04-18T18:20:44.399Z,65.70
2023-04-18T18:23:18.314Z,65.84
2023-04-18T18:25:50.734Z,66.06
2023-04-18T18:28:21.821Z,66.11
2023-04-18T18:30:58.921Z,66.24
2023-04-18T18:33:29.515Z,66.45
2023-04-18T18:36:01.470Z,66.65
2023-04-18T18:38:31.870Z,66.80
2023-04-18T18:41:04.661Z,66.76
2023-04-18T18:43:35.359Z,66.45
2023-04-18T18:46:06.110Z,66.65
2023-04-18T18:48:38.242Z,66.31
2023-04-18T18:51:10.059Z,66.49
2023-04-18T18:53:40.703Z,66.56
2023-04-18T18:56:11.193Z,66.93
2023-04-18T18:58:43.801Z,66.59
2023-04-18T19:01:23.488Z,65.99
2023-04-18T19:03:55.325Z,65.66
2023-04-18T19:06:27.798Z,65.42
2023-04-18T19:08:58.608Z,65.15
2023-04-18T19:11:30.041Z,65.30
2023-04-18T19:14:01.362Z,65.40
2023-04-18T19:16:33.699Z,65.27
2023-04-18T19:19:06.481Z,65.21
2023-04-18T19:21:38.880Z,65.47
2023-04-18T19:24:11.825Z,65.35
2023-04-18T19:26:43.842Z,65.59
2023-04-18T19:29:15.845Z,65.87
2023-04-18T19:31:46.545Z,65.96
2023-04-18T19:34:22.776Z,66.08
2023-04-18T19:36:53.374Z,66.78
2023-04-18T19:39:25.967Z,67.19
2023-04-18T19:41:57.079Z,67.54
2023-04-18T19:44:27.610Z,67.83
2023-04-18T19:46:59.714Z,68.12
2023-04-18T19:49:30.674Z,68.38
2023-04-18T19:52:01.675Z,68.21
2023-04-18T19:54:36.405Z,68.76
2023-04-18T19:57:06.894Z,68.83
2023-04-18T19:59:37.695Z,69.11
2023-04-18T20:02:08.255Z,68.96
2023-04-18T20:04:40.532Z,69.19
2023-04-18T20:07:14.181Z,69.66
2023-04-18T20:09:44.865Z,69.98
2023-04-18T20:12:16.294Z,70.67
2023-04-18T20:14:47.185Z,71.05
2023-04-18T20:17:17.814Z,71.28
2023-04-18T20:19:50.010Z,71.67
2023-04-18T20:22:20.898Z,71.85
2023-04-18T20:24:53.856Z,72.20
2023-04-18T20:27:24.712Z,71.98
2023-04-18T20:29:57.235Z,72.12
2023-04-18T20:32:28.036Z,72.12
2023-04-18T20:34:58.685Z,72.72
2023-04-18T20:37:29.442Z,72.68
2023-04-18T20:40:03.063Z,72.95
2023-04-18T20:42:36.977Z,73.14
2023-04-18T20:45:09.993Z,73.20
2023-04-18T20:47:44.151Z,73.61
2023-04-18T20:50:18.458Z,73.63
2023-04-18T20:52:49.369Z,73.68
2023-04-18T20:55:20.197Z,73.96
2023-04-18T20:57:51.402Z,74.07
2023-04-18T21:00:21.965Z,74.39
2023-04-18T21:02:53.762Z,74.89
2023-04-18T21:05:26.607Z,74.77
2023-04-18T21:07:59.673Z,75.15
2023-04-18T21:10:32.728Z,75.87
2023-04-18T21:13:06.185Z,76.17
2023-04-18T21:15:38.106Z,76.00
2023-04-18T21:18:09.829Z,76.25
2023-04-18T21:20:40.966Z,76.82
2023-04-18T21:23:12.593Z,76.97
2023-04-18T21:25:43.217Z,77.35
2023-04-18T21:28:13.945Z,77.51
2023-04-18T21:30:44.852Z,77.84
2023-04-18T21:33:19.065Z,78.20
2023-04-18T21:35:51.482Z,78.35
2023-04-18T21:38:23.929Z,78.39
2023-04-18T21:40:54.567Z,78.77
2023-04-18T21:43:27.704Z,78.80
2023-04-18T21:45:58.397Z,78.81
2023-04-18T21:48:29.219Z,78.78
2023-04-18T21:51:00.259Z,78.60
2023-04-18T21:53:31.830Z,78.65
2023-04-18T21:56:04.726Z,78.88
2023-04-18T21:58:36.266Z,78.32
2023-04-18T22:01:06.917Z,78.58
2023-04-18T22:03:37.962Z,78.57
2023-04-18T22:06:09.771Z,78.53
2023-04-18T22:08:42.085Z,77.97
2023-04-18T22:11:14.189Z,78.13
2023-04-18T22:13:46.070Z,78.33
2023-04-18T22:16:18.752Z,78.27
2023-04-18T22:18:49.476Z,77.76
2023-04-18T22:21:23.331Z,77.27
2023-04-18T22:23:53.844Z,77.25
2023-04-18T22:26:27.361Z,77.30
2023-04-18T22:28:58.358Z,77.17
2023-04-18T22:31:30.657Z,76.56
2023-04-18T22:34:06.080Z,76.39
2023-04-18T22:36:45.510Z,76.69
2023-04-18T22:39:16.020Z,76.46
2023-04-18T22:41:49.573Z,76.31
2023-04-18T22:44:20.089Z,76.07
2023-04-18T22:46:52.267Z,75.87
2023-04-18T22:49:24.514Z,75.78
2023-04-18T22:51:55.275Z,75.76
2023-04-18T22:54:27.129Z,75.51
2023-04-18T22:57:00.343Z,75.16
2023-04-18T22:59:31.932Z,74.59
2023-04-18T23:02:06.524Z,74.25
2023-04-18T23:04:37.034Z,74.11
2023-04-18T23:07:11.491Z,74.03
2023-04-18T23:09:41.883Z,73.86
2023-04-18T23:12:12.469Z,73.88
2023-04-18T23:14:46.074Z,73.70
2023-04-18T23:17:19.421Z,73.63
2023-04-18T23:19:49.899Z,73.28
2023-04-18T23:22:24.141Z,73.29
2023-04-18T23:24:56.383Z,73.46
2023-04-18T23:27:26.984Z,73.06
2023-04-18T23:29:57.589Z,72.66
2023-04-18T23:32:28.426Z,72.74
2023-04-18T23:35:00.635Z,72.56
2023-04-18T23:37:32.012Z,72.72
2023-04-18T23:40:05.393Z,72.28
2023-04-18T23:42:37.155Z,71.95
2023-04-18T23:45:08.523Z,71.77
2023-04-18T23:47:41.073Z,71.45
2023-04-18T23:50:12.453Z,71.09
2023-04-18T23:52:44.139Z,70.39
2023-04-18T23:55:21.640Z,69.65
2023-04-18T23:57:52.255Z,68.74
